sensor_id;sensor_type;location;lat;lon;timestamp;P1;durP1;ratioP1;P2;durP2;ratioP2
7359;SDS011;3720;48.274;7.796;2022-12-07T00:02:23;29.38;;;17.70;;
7359;SDS011;3720;48.274;7.796;2022-12-07T00:04:56;30.33;;;18.20;;
7359;SDS011;3720;48.274;7.796;2022-12-07T00:07:28;30.75;;;16.77;;
7359;SDS011;3720;48.274;7.796;2022-12-07T00:10:00;30.30;;;17.17;;
7359;SDS011;3720;48.274;7.796;2022-12-07T00:12:32;30.50;;;17.83;;
7359;SDS011;3720;48.274;7.796;2022-12-07T00:15:04;27.60;;;15.93;;
7359;SDS011;3720;48.274;7.796;2022-12-07T00:17:37;29.10;;;16.58;;
7359;SDS011;3720;48.274;7.796;2022-12-07T00:20:11;32.10;;;17.42;;
7359;SDS011;3720;48.274;7.796;2022-12-07T00:22:43;28.10;;;16.20;;
7359;SDS011;3720;48.274;7.796;2022-12-07T00:25:15;27.52;;;16.40;;
7359;SDS011;3720;48.274;7.796;2022-12-07T00:27:47;29.75;;;16.90;;
7359;SDS011;3720;48.274;7.796;2022-12-07T00:30:19;30.52;;;17.02;;
7359;SDS011;3720;48.274;7.796;2022-12-07T00:32:51;29.67;;;17.45;;
7359;SDS011;3720;48.274;7.796;2022-12-07T00:35:24;27.00;;;15.88;;
7359;SDS011;3720;48.274;7.796;2022-12-07T00:37:56;31.17;;;17.42;;
7359;SDS011;3720;48.274;7.796;2022-12-07T00:40:28;30.67;;;16.67;;
7359;SDS011;3720;48.274;7.796;2022-12-07T00:42:59;30.02;;;17.15;;
7359;SDS011;3720;48.274;7.796;2022-12-07T00:45:31;29.15;;;17.20;;
7359;SDS011;3720;48.274;7.796;2022-12-07T00:48:03;27.60;;;16.30;;
7359;SDS011;3720;48.274;7.796;2022-12-07T00:50:37;30.38;;;17.55;;
7359;SDS011;3720;48.274;7.796;2022-12-07T00:53:09;30.45;;;17.67;;
7359;SDS011;3720;48.274;7.796;2022-12-07T00:55:41;30.05;;;17.58;;
7359;SDS011;3720;48.274;7.796;2022-12-07T00:58:13;31.95;;;18.13;;
7359;SDS011;3720;48.274;7.796;2022-12-07T01:00:45;28.55;;;16.55;;
7359;SDS011;3720;48.274;7.796;2022-12-07T01:03:17;30.35;;;17.05;;
7359;SDS011;3720;48.274;7.796;2022-12-07T01:05:51;30.75;;;16.88;;
7359;SDS011;3720;48.274;7.796;2022-12-07T01:08:25;32.15;;;17.80;;
7359;SDS011;3720;48.274;7.796;2022-12-07T01:10:58;31.50;;;17.95;;
7359;SDS011;3720;48.274;7.796;2022-12-07T01:13:31;30.45;;;17.38;;
7359;SDS011;3720;48.274;7.796;2022-12-07T01:16:05;31.17;;;17.85;;
7359;SDS011;3720;48.274;7.796;2022-12-07T01:18:38;31.35;;;17.35;;
7359;SDS011;3720;48.274;7.796;2022-12-07T01:21:13;31.05;;;17.65;;
7359;SDS011;3720;48.274;7.796;2022-12-07T01:23:46;29.75;;;17.85;;
7359;SDS011;3720;48.274;7.796;2022-12-07T01:26:19;30.45;;;18.23;;
7359;SDS011;3720;48.274;7.796;2022-12-07T01:28:52;33.30;;;18.33;;
7359;SDS011;3720;48.274;7.796;2022-12-07T01:31:25;33.78;;;19.33;;
7359;SDS011;3720;48.274;7.796;2022-12-07T01:33:58;33.58;;;19.40;;
7359;SDS011;3720;48.274;7.796;2022-12-07T01:36:33;34.28;;;19.05;;
7359;SDS011;3720;48.274;7.796;2022-12-07T01:39:06;34.13;;;18.73;;
7359;SDS011;3720;48.274;7.796;2022-12-07T01:41:42;32.65;;;19.08;;
7359;SDS011;3720;48.274;7.796;2022-12-07T01:44:18;35.22;;;19.08;;
7359;SDS011;3720;48.274;7.796;2022-12-07T01:46:52;31.58;;;18.98;;
7359;SDS011;3720;48.274;7.796;2022-12-07T01:49:27;31.73;;;18.45;;
7359;SDS011;3720;48.274;7.796;2022-12-07T01:52:12;34.40;;;19.45;;
7359;SDS011;3720;48.274;7.796;2022-12-07T01:54:47;33.65;;;19.08;;
7359;SDS011;3720;48.274;7.796;2022-12-07T01:57:21;32.78;;;18.73;;
7359;SDS011;3720;48.274;7.796;2022-12-07T01:59:54;35.33;;;19.45;;
7359;SDS011;3720;48.274;7.796;2022-12-07T02:02:28;33.10;;;19.48;;
7359;SDS011;3720;48.274;7.796;2022-12-07T02:05:04;32.65;;;18.75;;
7359;SDS011;3720;48.274;7.796;2022-12-07T02:07:39;33.10;;;18.30;;
7359;SDS011;3720;48.274;7.796;2022-12-07T02:10:12;33.80;;;19.60;;
7359;SDS011;3720;48.274;7.796;2022-12-07T02:12:46;31.40;;;18.10;;
7359;SDS011;3720;48.274;7.796;2022-12-07T02:15:20;36.05;;;18.88;;
7359;SDS011;3720;48.274;7.796;2022-12-07T02:17:58;32.55;;;18.52;;
7359;SDS011;3720;48.274;7.796;2022-12-07T02:20:37;34.33;;;19.80;;
7359;SDS011;3720;48.274;7.796;2022-12-07T02:23:20;33.53;;;19.17;;
7359;SDS011;3720;48.274;7.796;2022-12-07T02:26:43;32.25;;;18.48;;
7359;SDS011;3720;48.274;7.796;2022-12-07T02:29:40;35.35;;;19.48;;
7359;SDS011;3720;48.274;7.796;2022-12-07T02:32:18;37.42;;;19.98;;
7359;SDS011;3720;48.274;7.796;2022-12-07T02:34:56;36.40;;;19.38;;
7359;SDS011;3720;48.274;7.796;2022-12-07T02:37:36;36.17;;;19.73;;
7359;SDS011;3720;48.274;7.796;2022-12-07T02:40:14;35.17;;;19.00;;
7359;SDS011;3720;48.274;7.796;2022-12-07T02:42:53;37.85;;;20.00;;
7359;SDS011;3720;48.274;7.796;2022-12-07T02:45:31;33.72;;;18.73;;
7359;SDS011;3720;48.274;7.796;2022-12-07T02:48:08;34.65;;;18.88;;
7359;SDS011;3720;48.274;7.796;2022-12-07T02:50:44;31.23;;;17.90;;
7359;SDS011;3720;48.274;7.796;2022-12-07T02:53:29;34.83;;;19.70;;
7359;SDS011;3720;48.274;7.796;2022-12-07T02:56:07;30.27;;;17.40;;
7359;SDS011;3720;48.274;7.796;2022-12-07T02:58:48;33.83;;;18.30;;
7359;SDS011;3720;48.274;7.796;2022-12-07T03:01:34;30.00;;;17.40;;
7359;SDS011;3720;48.274;7.796;2022-12-07T03:04:16;32.08;;;18.08;;
7359;SDS011;3720;48.274;7.796;2022-12-07T03:07:00;31.55;;;17.83;;
7359;SDS011;3720;48.274;7.796;2022-12-07T03:09:41;31.80;;;18.02;;
7359;SDS011;3720;48.274;7.796;2022-12-07T03:12:24;32.15;;;18.40;;
7359;SDS011;3720;48.274;7.796;2022-12-07T03:15:02;28.77;;;17.08;;
7359;SDS011;3720;48.274;7.796;2022-12-07T03:17:40;32.13;;;17.23;;
7359;SDS011;3720;48.274;7.796;2022-12-07T03:20:17;29.48;;;17.30;;
7359;SDS011;3720;48.274;7.796;2022-12-07T03:22:53;28.50;;;16.20;;
7359;SDS011;3720;48.274;7.796;2022-12-07T03:25:25;29.35;;;16.42;;
7359;SDS011;3720;48.274;7.796;2022-12-07T03:27:59;33.20;;;18.92;;
7359;SDS011;3720;48.274;7.796;2022-12-07T03:30:36;33.20;;;18.52;;
7359;SDS011;3720;48.274;7.796;2022-12-07T03:33:15;31.40;;;18.63;;
7359;SDS011;3720;48.274;7.796;2022-12-07T03:35:54;34.50;;;18.23;;
7359;SDS011;3720;48.274;7.796;2022-12-07T03:38:33;34.05;;;18.83;;
7359;SDS011;3720;48.274;7.796;2022-12-07T03:41:11;34.40;;;18.05;;
7359;SDS011;3720;48.274;7.796;2022-12-07T03:43:46;32.17;;;18.65;;
7359;SDS011;3720;48.274;7.796;2022-12-07T03:46:19;31.80;;;17.60;;
7359;SDS011;3720;48.274;7.796;2022-12-07T03:49:00;30.98;;;17.63;;
7359;SDS011;3720;48.274;7.796;2022-12-07T03:51:40;34.90;;;19.80;;
7359;SDS011;3720;48.274;7.796;2022-12-07T03:54:17;33.47;;;18.35;;
7359;SDS011;3720;48.274;7.796;2022-12-07T03:56:53;34.55;;;19.25;;
7359;SDS011;3720;48.274;7.796;2022-12-07T03:59:27;31.15;;;16.73;;
7359;SDS011;3720;48.274;7.796;2022-12-07T04:02:02;27.60;;;16.10;;
7359;SDS011;3720;48.274;7.796;2022-12-07T04:04:37;32.08;;;17.88;;
7359;SDS011;3720;48.274;7.796;2022-12-07T04:07:09;30.17;;;16.13;;
7359;SDS011;3720;48.274;7.796;2022-12-07T04:09:42;30.73;;;17.45;;
7359;SDS011;3720;48.274;7.796;2022-12-07T04:12:14;31.13;;;18.00;;
7359;SDS011;3720;48.274;7.796;2022-12-07T04:14:46;29.20;;;16.42;;
7359;SDS011;3720;48.274;7.796;2022-12-07T04:17:18;29.88;;;16.80;;
7359;SDS011;3720;48.274;7.796;2022-12-07T04:19:52;29.88;;;16.83;;
7359;SDS011;3720;48.274;7.796;2022-12-07T04:22:23;30.52;;;17.30;;
7359;SDS011;3720;48.274;7.796;2022-12-07T04:24:55;28.08;;;16.17;;
7359;SDS011;3720;48.274;7.796;2022-12-07T04:27:27;27.65;;;16.08;;
7359;SDS011;3720;48.274;7.796;2022-12-07T04:29:59;28.27;;;15.77;;
7359;SDS011;3720;48.274;7.796;2022-12-07T04:32:32;30.15;;;16.88;;
7359;SDS011;3720;48.274;7.796;2022-12-07T04:35:06;30.85;;;17.35;;
7359;SDS011;3720;48.274;7.796;2022-12-07T04:37:39;30.73;;;17.40;;
7359;SDS011;3720;48.274;7.796;2022-12-07T04:40:11;31.67;;;17.10;;
7359;SDS011;3720;48.274;7.796;2022-12-07T04:42:44;31.00;;;17.02;;
7359;SDS011;3720;48.274;7.796;2022-12-07T04:45:16;28.58;;;16.63;;
7359;SDS011;3720;48.274;7.796;2022-12-07T04:47:48;30.88;;;17.20;;
7359;SDS011;3720;48.274;7.796;2022-12-07T04:50:21;28.30;;;16.17;;
7359;SDS011;3720;48.274;7.796;2022-12-07T04:52:53;28.25;;;15.95;;
7359;SDS011;3720;48.274;7.796;2022-12-07T04:55:25;27.50;;;15.43;;
7359;SDS011;3720;48.274;7.796;2022-12-07T04:57:57;29.00;;;15.95;;
7359;SDS011;3720;48.274;7.796;2022-12-07T05:00:29;25.08;;;15.25;;
7359;SDS011;3720;48.274;7.796;2022-12-07T05:03:01;26.30;;;15.23;;
7359;SDS011;3720;48.274;7.796;2022-12-07T05:05:35;36.63;;;19.30;;
7359;SDS011;3720;48.274;7.796;2022-12-07T05:08:06;35.80;;;19.08;;
7359;SDS011;3720;48.274;7.796;2022-12-07T05:10:38;35.08;;;18.80;;
7359;SDS011;3720;48.274;7.796;2022-12-07T05:13:10;28.27;;;16.42;;
7359;SDS011;3720;48.274;7.796;2022-12-07T05:15:42;29.88;;;15.75;;
7359;SDS011;3720;48.274;7.796;2022-12-07T05:18:15;28.00;;;15.27;;
7359;SDS011;3720;48.274;7.796;2022-12-07T05:20:48;26.40;;;14.27;;
7359;SDS011;3720;48.274;7.796;2022-12-07T05:23:21;22.15;;;12.77;;
7359;SDS011;3720;48.274;7.796;2022-12-07T05:25:53;21.77;;;12.43;;
7359;SDS011;3720;48.274;7.796;2022-12-07T05:28:25;19.90;;;11.75;;
7359;SDS011;3720;48.274;7.796;2022-12-07T05:30:57;22.70;;;12.77;;
7359;SDS011;3720;48.274;7.796;2022-12-07T05:33:29;21.83;;;12.65;;
7359;SDS011;3720;48.274;7.796;2022-12-07T05:36:02;23.02;;;12.85;;
7359;SDS011;3720;48.274;7.796;2022-12-07T05:38:37;21.60;;;12.57;;
7359;SDS011;3720;48.274;7.796;2022-12-07T05:41:09;22.00;;;12.55;;
7359;SDS011;3720;48.274;7.796;2022-12-07T05:44:04;23.05;;;13.10;;
7359;SDS011;3720;48.274;7.796;2022-12-07T05:46:37;23.20;;;12.93;;
7359;SDS011;3720;48.274;7.796;2022-12-07T05:49:08;21.98;;;12.98;;
7359;SDS011;3720;48.274;7.796;2022-12-07T05:51:42;22.95;;;13.02;;
7359;SDS011;3720;48.274;7.796;2022-12-07T05:54:14;24.08;;;13.40;;
7359;SDS011;3720;48.274;7.796;2022-12-07T05:56:46;22.90;;;12.98;;
7359;SDS011;3720;48.274;7.796;2022-12-07T05:59:18;23.02;;;13.05;;
7359;SDS011;3720;48.274;7.796;2022-12-07T06:01:53;19.75;;;12.15;;
7359;SDS011;3720;48.274;7.796;2022-12-07T06:04:27;21.13;;;12.20;;
7359;SDS011;3720;48.274;7.796;2022-12-07T06:07:02;21.45;;;12.68;;
7359;SDS011;3720;48.274;7.796;2022-12-07T06:09:35;19.80;;;12.10;;
7359;SDS011;3720;48.274;7.796;2022-12-07T06:12:09;23.38;;;12.95;;
7359;SDS011;3720;48.274;7.796;2022-12-07T06:14:59;22.50;;;12.82;;
7359;SDS011;3720;48.274;7.796;2022-12-07T06:17:31;23.58;;;12.85;;
7359;SDS011;3720;48.274;7.796;2022-12-07T06:20:03;24.35;;;13.98;;
7359;SDS011;3720;48.274;7.796;2022-12-07T06:22:37;22.50;;;13.40;;
7359;SDS011;3720;48.274;7.796;2022-12-07T06:25:09;22.98;;;13.40;;
7359;SDS011;3720;48.274;7.796;2022-12-07T06:27:41;21.80;;;13.23;;
7359;SDS011;3720;48.274;7.796;2022-12-07T06:30:13;19.95;;;11.80;;
7359;SDS011;3720;48.274;7.796;2022-12-07T06:32:45;22.42;;;12.35;;
7359;SDS011;3720;48.274;7.796;2022-12-07T06:35:17;20.75;;;12.32;;
7359;SDS011;3720;48.274;7.796;2022-12-07T06:37:50;19.10;;;11.55;;
7359;SDS011;3720;48.274;7.796;2022-12-07T06:40:22;23.75;;;14.23;;
7359;SDS011;3720;48.274;7.796;2022-12-07T06:42:54;23.60;;;13.70;;
7359;SDS011;3720;48.274;7.796;2022-12-07T06:45:26;24.38;;;14.27;;
7359;SDS011;3720;48.274;7.796;2022-12-07T06:47:58;26.20;;;13.75;;
7359;SDS011;3720;48.274;7.796;2022-12-07T06:50:30;19.02;;;10.85;;
7359;SDS011;3720;48.274;7.796;2022-12-07T06:53:03;18.98;;;11.02;;
7359;SDS011;3720;48.274;7.796;2022-12-07T06:55:35;18.63;;;11.10;;
7359;SDS011;3720;48.274;7.796;2022-12-07T06:58:07;20.23;;;11.70;;
7359;SDS011;3720;48.274;7.796;2022-12-07T07:00:39;19.70;;;11.50;;
7359;SDS011;3720;48.274;7.796;2022-12-07T07:03:11;19.52;;;11.35;;
7359;SDS011;3720;48.274;7.796;2022-12-07T07:05:43;19.50;;;11.05;;
7359;SDS011;3720;48.274;7.796;2022-12-07T07:08:17;18.42;;;10.93;;
7359;SDS011;3720;48.274;7.796;2022-12-07T07:10:49;19.73;;;10.93;;
7359;SDS011;3720;48.274;7.796;2022-12-07T07:13:21;19.20;;;11.35;;
7359;SDS011;3720;48.274;7.796;2022-12-07T07:15:53;31.20;;;15.60;;
7359;SDS011;3720;48.274;7.796;2022-12-07T07:18:26;33.35;;;16.85;;
7359;SDS011;3720;48.274;7.796;2022-12-07T07:20:59;27.25;;;15.13;;
7359;SDS011;3720;48.274;7.796;2022-12-07T07:23:32;30.13;;;14.93;;
7359;SDS011;3720;48.274;7.796;2022-12-07T07:26:04;27.05;;;14.75;;
7359;SDS011;3720;48.274;7.796;2022-12-07T07:28:36;26.45;;;14.40;;
7359;SDS011;3720;48.274;7.796;2022-12-07T07:31:08;28.08;;;14.20;;
7359;SDS011;3720;48.274;7.796;2022-12-07T07:33:40;28.60;;;15.57;;
7359;SDS011;3720;48.274;7.796;2022-12-07T07:36:12;28.63;;;16.48;;
7359;SDS011;3720;48.274;7.796;2022-12-07T07:38:46;22.10;;;13.45;;
7359;SDS011;3720;48.274;7.796;2022-12-07T07:41:17;20.38;;;12.38;;
7359;SDS011;3720;48.274;7.796;2022-12-07T07:43:49;22.42;;;13.02;;
7359;SDS011;3720;48.274;7.796;2022-12-07T07:46:21;24.75;;;13.15;;
7359;SDS011;3720;48.274;7.796;2022-12-07T07:48:53;20.92;;;12.10;;
7359;SDS011;3720;48.274;7.796;2022-12-07T07:51:25;20.38;;;11.73;;
7359;SDS011;3720;48.274;7.796;2022-12-07T07:53:58;18.85;;;10.00;;
7359;SDS011;3720;48.274;7.796;2022-12-07T07:56:30;18.17;;;9.75;;
7359;SDS011;3720;48.274;7.796;2022-12-07T07:59:02;19.75;;;10.75;;
7359;SDS011;3720;48.274;7.796;2022-12-07T08:01:34;16.02;;;9.77;;
7359;SDS011;3720;48.274;7.796;2022-12-07T08:04:06;17.25;;;10.18;;
7359;SDS011;3720;48.274;7.796;2022-12-07T08:06:38;17.55;;;10.20;;
7359;SDS011;3720;48.274;7.796;2022-12-07T08:09:13;20.27;;;10.60;;
7359;SDS011;3720;48.274;7.796;2022-12-07T08:11:45;18.90;;;10.38;;
7359;SDS011;3720;48.274;7.796;2022-12-07T08:14:17;18.42;;;10.80;;
7359;SDS011;3720;48.274;7.796;2022-12-07T08:16:49;21.15;;;11.32;;
7359;SDS011;3720;48.274;7.796;2022-12-07T08:19:21;17.48;;;10.35;;
7359;SDS011;3720;48.274;7.796;2022-12-07T08:21:53;17.80;;;10.18;;
7359;SDS011;3720;48.274;7.796;2022-12-07T08:24:27;19.30;;;10.25;;
7359;SDS011;3720;48.274;7.796;2022-12-07T08:26:59;20.42;;;11.35;;
7359;SDS011;3720;48.274;7.796;2022-12-07T08:29:31;18.92;;;10.43;;
7359;SDS011;3720;48.274;7.796;2022-12-07T08:32:03;22.17;;;11.63;;
7359;SDS011;3720;48.274;7.796;2022-12-07T08:34:35;25.80;;;13.38;;
7359;SDS011;3720;48.274;7.796;2022-12-07T08:37:08;24.67;;;13.45;;
7359;SDS011;3720;48.274;7.796;2022-12-07T08:39:41;27.20;;;14.27;;
7359;SDS011;3720;48.274;7.796;2022-12-07T08:42:13;23.30;;;12.43;;
7359;SDS011;3720;48.274;7.796;2022-12-07T08:44:45;23.48;;;12.80;;
7359;SDS011;3720;48.274;7.796;2022-12-07T08:47:17;23.17;;;11.90;;
7359;SDS011;3720;48.274;7.796;2022-12-07T08:49:49;25.60;;;13.38;;
7359;SDS011;3720;48.274;7.796;2022-12-07T08:52:22;33.63;;;15.38;;
7359;SDS011;3720;48.274;7.796;2022-12-07T08:54:56;34.83;;;14.95;;
7359;SDS011;3720;48.274;7.796;2022-12-07T08:57:28;26.85;;;13.65;;
7359;SDS011;3720;48.274;7.796;2022-12-07T09:00:02;29.05;;;16.17;;
7359;SDS011;3720;48.274;7.796;2022-12-07T09:02:34;28.60;;;16.98;;
7359;SDS011;3720;48.274;7.796;2022-12-07T09:05:07;27.67;;;16.45;;
7359;SDS011;3720;48.274;7.796;2022-12-07T09:07:39;28.85;;;17.02;;
7359;SDS011;3720;48.274;7.796;2022-12-07T09:10:13;24.70;;;15.10;;
7359;SDS011;3720;48.274;7.796;2022-12-07T09:12:46;28.20;;;15.93;;
7359;SDS011;3720;48.274;7.796;2022-12-07T09:15:18;25.60;;;14.05;;
7359;SDS011;3720;48.274;7.796;2022-12-07T09:17:50;25.73;;;14.68;;
7359;SDS011;3720;48.274;7.796;2022-12-07T09:20:23;25.48;;;14.30;;
7359;SDS011;3720;48.274;7.796;2022-12-07T09:22:55;25.00;;;14.35;;
7359;SDS011;3720;48.274;7.796;2022-12-07T09:25:28;27.42;;;13.82;;
7359;SDS011;3720;48.274;7.796;2022-12-07T09:28:00;27.23;;;13.65;;
7359;SDS011;3720;48.274;7.796;2022-12-07T09:30:32;26.45;;;13.32;;
7359;SDS011;3720;48.274;7.796;2022-12-07T09:33:04;24.45;;;13.57;;
7359;SDS011;3720;48.274;7.796;2022-12-07T09:35:36;24.00;;;13.20;;
7359;SDS011;3720;48.274;7.796;2022-12-07T09:38:08;21.55;;;13.38;;
7359;SDS011;3720;48.274;7.796;2022-12-07T09:40:41;23.67;;;14.73;;
7359;SDS011;3720;48.274;7.796;2022-12-07T09:43:14;24.58;;;14.98;;
7359;SDS011;3720;48.274;7.796;2022-12-07T09:45:49;27.45;;;17.52;;
7359;SDS011;3720;48.274;7.796;2022-12-07T09:48:25;27.60;;;16.88;;
7359;SDS011;3720;48.274;7.796;2022-12-07T09:51:01;24.45;;;15.30;;
7359;SDS011;3720;48.274;7.796;2022-12-07T09:53:34;24.02;;;15.50;;
7359;SDS011;3720;48.274;7.796;2022-12-07T09:56:10;24.92;;;15.80;;
7359;SDS011;3720;48.274;7.796;2022-12-07T09:58:44;26.23;;;14.45;;
7359;SDS011;3720;48.274;7.796;2022-12-07T10:01:18;23.17;;;14.35;;
7359;SDS011;3720;48.274;7.796;2022-12-07T10:03:52;24.42;;;15.40;;
7359;SDS011;3720;48.274;7.796;2022-12-07T10:06:26;25.45;;;15.18;;
7359;SDS011;3720;48.274;7.796;2022-12-07T10:08:57;24.85;;;15.13;;
7359;SDS011;3720;48.274;7.796;2022-12-07T10:11:31;23.15;;;14.50;;
7359;SDS011;3720;48.274;7.796;2022-12-07T10:14:10;20.85;;;13.55;;
7359;SDS011;3720;48.274;7.796;2022-12-07T10:16:43;23.15;;;13.68;;
7359;SDS011;3720;48.274;7.796;2022-12-07T10:19:21;20.58;;;12.68;;
7359;SDS011;3720;48.274;7.796;2022-12-07T10:21:59;20.13;;;11.75;;
7359;SDS011;3720;48.274;7.796;2022-12-07T10:24:36;22.60;;;13.10;;
7359;SDS011;3720;48.274;7.796;2022-12-07T10:27:18;20.40;;;12.40;;
7359;SDS011;3720;48.274;7.796;2022-12-07T10:30:02;21.05;;;12.43;;
7359;SDS011;3720;48.274;7.796;2022-12-07T10:32:40;22.60;;;13.27;;
7359;SDS011;3720;48.274;7.796;2022-12-07T10:35:18;20.92;;;13.38;;
7359;SDS011;3720;48.274;7.796;2022-12-07T10:37:56;20.33;;;12.70;;
7359;SDS011;3720;48.274;7.796;2022-12-07T10:40:31;23.05;;;12.98;;
7359;SDS011;3720;48.274;7.796;2022-12-07T10:43:17;19.15;;;11.90;;
7359;SDS011;3720;48.274;7.796;2022-12-07T10:46:07;18.95;;;11.48;;
7359;SDS011;3720;48.274;7.796;2022-12-07T10:48:54;20.17;;;12.00;;
7359;SDS011;3720;48.274;7.796;2022-12-07T10:51:35;20.70;;;12.35;;
7359;SDS011;3720;48.274;7.796;2022-12-07T10:54:16;18.77;;;11.38;;
7359;SDS011;3720;48.274;7.796;2022-12-07T10:57:05;18.75;;;12.10;;
7359;SDS011;3720;48.274;7.796;2022-12-07T10:59:55;20.50;;;11.88;;
7359;SDS011;3720;48.274;7.796;2022-12-07T11:02:36;18.55;;;11.57;;
7359;SDS011;3720;48.274;7.796;2022-12-07T11:05:23;18.92;;;11.90;;
7359;SDS011;3720;48.274;7.796;2022-12-07T11:08:03;18.88;;;11.52;;
7359;SDS011;3720;48.274;7.796;2022-12-07T11:10:44;19.33;;;11.15;;
7359;SDS011;3720;48.274;7.796;2022-12-07T11:13:24;19.30;;;11.15;;
7359;SDS011;3720;48.274;7.796;2022-12-07T11:16:03;18.92;;;11.50;;
7359;SDS011;3720;48.274;7.796;2022-12-07T11:18:58;18.20;;;11.50;;
7359;SDS011;3720;48.274;7.796;2022-12-07T11:21:39;17.73;;;10.98;;
7359;SDS011;3720;48.274;7.796;2022-12-07T11:24:17;16.80;;;10.38;;
7359;SDS011;3720;48.274;7.796;2022-12-07T11:26:57;18.65;;;11.38;;
7359;SDS011;3720;48.274;7.796;2022-12-07T11:29:47;17.95;;;10.80;;
7359;SDS011;3720;48.274;7.796;2022-12-07T11:32:43;17.20;;;10.50;;
7359;SDS011;3720;48.274;7.796;2022-12-07T11:35:22;18.17;;;10.73;;
7359;SDS011;3720;48.274;7.796;2022-12-07T11:38:11;18.52;;;11.38;;
7359;SDS011;3720;48.274;7.796;2022-12-07T11:40:46;16.05;;;10.25;;
7359;SDS011;3720;48.274;7.796;2022-12-07T11:43:21;15.27;;;10.05;;
7359;SDS011;3720;48.274;7.796;2022-12-07T11:45:58;15.10;;;9.57;;
7359;SDS011;3720;48.274;7.796;2022-12-07T11:48:38;16.23;;;9.57;;
7359;SDS011;3720;48.274;7.796;2022-12-07T11:53:46;17.15;;;10.07;;
7359;SDS011;3720;48.274;7.796;2022-12-07T11:56:23;15.93;;;9.45;;
7359;SDS011;3720;48.274;7.796;2022-12-07T11:58:58;15.00;;;9.50;;
7359;SDS011;3720;48.274;7.796;2022-12-07T12:01:37;15.45;;;9.98;;
7359;SDS011;3720;48.274;7.796;2022-12-07T12:04:23;15.98;;;10.23;;
7359;SDS011;3720;48.274;7.796;2022-12-07T12:07:05;17.65;;;10.27;;
7359;SDS011;3720;48.274;7.796;2022-12-07T12:09:41;17.65;;;10.63;;
7359;SDS011;3720;48.274;7.796;2022-12-07T12:12:29;14.45;;;9.13;;
7359;SDS011;3720;48.274;7.796;2022-12-07T12:15:17;16.30;;;9.95;;
7359;SDS011;3720;48.274;7.796;2022-12-07T12:18:02;15.85;;;10.02;;
7359;SDS011;3720;48.274;7.796;2022-12-07T12:20:45;17.20;;;10.43;;
7359;SDS011;3720;48.274;7.796;2022-12-07T12:23:21;15.25;;;9.75;;
7359;SDS011;3720;48.274;7.796;2022-12-07T12:25:55;16.20;;;10.25;;
7359;SDS011;3720;48.274;7.796;2022-12-07T12:28:39;16.17;;;10.30;;
7359;SDS011;3720;48.274;7.796;2022-12-07T12:31:13;17.27;;;10.88;;
7359;SDS011;3720;48.274;7.796;2022-12-07T12:33:48;16.35;;;10.98;;
7359;SDS011;3720;48.274;7.796;2022-12-07T12:36:24;19.85;;;12.35;;
7359;SDS011;3720;48.274;7.796;2022-12-07T12:39:14;16.63;;;11.32;;
7359;SDS011;3720;48.274;7.796;2022-12-07T12:41:53;17.33;;;11.68;;
7359;SDS011;3720;48.274;7.796;2022-12-07T12:47:55;17.50;;;12.10;;
7359;SDS011;3720;48.274;7.796;2022-12-07T12:50:31;18.95;;;13.20;;
7359;SDS011;3720;48.274;7.796;2022-12-07T12:53:16;19.83;;;14.10;;
7359;SDS011;3720;48.274;7.796;2022-12-07T12:56:16;19.83;;;13.35;;
7359;SDS011;3720;48.274;7.796;2022-12-07T13:01:56;17.90;;;12.10;;
7359;SDS011;3720;48.274;7.796;2022-12-07T13:04:51;18.65;;;12.02;;
7359;SDS011;3720;48.274;7.796;2022-12-07T13:10:33;17.73;;;11.93;;
7359;SDS011;3720;48.274;7.796;2022-12-07T13:22:36;10.07;;;7.13;;
7359;SDS011;3720;48.274;7.796;2022-12-07T13:25:33;11.10;;;7.60;;
7359;SDS011;3720;48.274;7.796;2022-12-07T13:28:16;11.23;;;7.70;;
7359;SDS011;3720;48.274;7.796;2022-12-07T13:30:54;14.52;;;8.10;;
7359;SDS011;3720;48.274;7.796;2022-12-07T13:33:34;11.23;;;7.63;;
7359;SDS011;3720;48.274;7.796;2022-12-07T13:36:09;11.35;;;7.50;;
7359;SDS011;3720;48.274;7.796;2022-12-07T13:38:53;11.85;;;7.43;;
7359;SDS011;3720;48.274;7.796;2022-12-07T13:41:28;12.02;;;8.32;;
7359;SDS011;3720;48.274;7.796;2022-12-07T13:44:01;11.65;;;7.55;;
7359;SDS011;3720;48.274;7.796;2022-12-07T13:46:42;12.48;;;8.35;;
7359;SDS011;3720;48.274;7.796;2022-12-07T13:49:18;12.07;;;8.05;;
7359;SDS011;3720;48.274;7.796;2022-12-07T13:51:52;12.55;;;7.60;;
7359;SDS011;3720;48.274;7.796;2022-12-07T13:54:26;11.75;;;7.57;;
7359;SDS011;3720;48.274;7.796;2022-12-07T13:57:00;11.95;;;7.88;;
7359;SDS011;3720;48.274;7.796;2022-12-07T13:59:31;13.30;;;7.93;;
7359;SDS011;3720;48.274;7.796;2022-12-07T14:02:16;15.50;;;7.90;;
7359;SDS011;3720;48.274;7.796;2022-12-07T14:04:51;12.50;;;8.02;;
7359;SDS011;3720;48.274;7.796;2022-12-07T14:07:24;12.10;;;8.18;;
7359;SDS011;3720;48.274;7.796;2022-12-07T14:09:58;10.98;;;7.63;;
7359;SDS011;3720;48.274;7.796;2022-12-07T14:12:35;12.38;;;7.82;;
7359;SDS011;3720;48.274;7.796;2022-12-07T14:15:15;16.38;;;7.05;;
7359;SDS011;3720;48.274;7.796;2022-12-07T14:17:53;11.27;;;7.43;;
7359;SDS011;3720;48.274;7.796;2022-12-07T14:20:29;11.35;;;7.57;;
7359;SDS011;3720;48.274;7.796;2022-12-07T14:23:03;11.80;;;8.00;;
7359;SDS011;3720;48.274;7.796;2022-12-07T14:25:46;10.75;;;7.38;;
7359;SDS011;3720;48.274;7.796;2022-12-07T14:28:27;12.02;;;7.45;;
7359;SDS011;3720;48.274;7.796;2022-12-07T14:31:00;12.23;;;7.93;;
7359;SDS011;3720;48.274;7.796;2022-12-07T14:33:33;10.52;;;7.20;;
7359;SDS011;3720;48.274;7.796;2022-12-07T14:36:05;10.02;;;7.50;;
7359;SDS011;3720;48.274;7.796;2022-12-07T14:38:39;12.50;;;7.22;;
7359;SDS011;3720;48.274;7.796;2022-12-07T14:41:12;12.48;;;7.82;;
7359;SDS011;3720;48.274;7.796;2022-12-07T14:44:08;11.38;;;7.43;;
7359;SDS011;3720;48.274;7.796;2022-12-07T14:46:42;11.68;;;7.32;;
7359;SDS011;3720;48.274;7.796;2022-12-07T14:49:14;10.80;;;7.30;;
7359;SDS011;3720;48.274;7.796;2022-12-07T14:51:47;11.50;;;7.55;;
7359;SDS011;3720;48.274;7.796;2022-12-07T14:54:19;11.10;;;7.35;;
7359;SDS011;3720;48.274;7.796;2022-12-07T14:56:53;11.35;;;7.70;;
7359;SDS011;3720;48.274;7.796;2022-12-07T14:59:26;11.93;;;7.47;;
7359;SDS011;3720;48.274;7.796;2022-12-07T15:01:58;12.23;;;7.38;;
7359;SDS011;3720;48.274;7.796;2022-12-07T15:04:30;11.43;;;7.18;;
7359;SDS011;3720;48.274;7.796;2022-12-07T15:07:03;13.27;;;7.90;;
7359;SDS011;3720;48.274;7.796;2022-12-07T15:09:36;12.23;;;8.00;;
7359;SDS011;3720;48.274;7.796;2022-12-07T15:12:08;10.98;;;7.63;;
7359;SDS011;3720;48.274;7.796;2022-12-07T15:14:42;10.63;;;7.32;;
7359;SDS011;3720;48.274;7.796;2022-12-07T15:17:14;10.45;;;7.30;;
7359;SDS011;3720;48.274;7.796;2022-12-07T15:19:45;11.95;;;7.60;;
7359;SDS011;3720;48.274;7.796;2022-12-07T15:22:17;13.40;;;8.15;;
7359;SDS011;3720;48.274;7.796;2022-12-07T15:24:49;12.77;;;8.10;;
7359;SDS011;3720;48.274;7.796;2022-12-07T15:27:21;11.35;;;7.57;;
7359;SDS011;3720;48.274;7.796;2022-12-07T15:29:54;10.73;;;7.10;;
7359;SDS011;3720;48.274;7.796;2022-12-07T15:32:26;13.30;;;7.30;;
7359;SDS011;3720;48.274;7.796;2022-12-07T15:34:58;12.43;;;8.45;;
7359;SDS011;3720;48.274;7.796;2022-12-07T15:37:30;12.60;;;7.50;;
7359;SDS011;3720;48.274;7.796;2022-12-07T15:40:02;11.38;;;7.68;;
7359;SDS011;3720;48.274;7.796;2022-12-07T15:42:35;12.00;;;7.90;;
7359;SDS011;3720;48.274;7.796;2022-12-07T15:45:09;12.43;;;8.23;;
7359;SDS011;3720;48.274;7.796;2022-12-07T15:47:42;11.70;;;7.60;;
7359;SDS011;3720;48.274;7.796;2022-12-07T15:50:15;12.27;;;8.05;;
7359;SDS011;3720;48.274;7.796;2022-12-07T15:52:48;11.75;;;8.10;;
7359;SDS011;3720;48.274;7.796;2022-12-07T15:55:19;12.43;;;8.27;;
7359;SDS011;3720;48.274;7.796;2022-12-07T15:57:51;13.18;;;8.38;;
7359;SDS011;3720;48.274;7.796;2022-12-07T16:00:24;20.65;;;11.25;;
7359;SDS011;3720;48.274;7.796;2022-12-07T16:02:56;20.60;;;11.70;;